createdAt,value
2018-09-02T00:00:59.692Z,14.33
2018-09-02T00:01:59.675Z,14.41
2018-09-02T00:02:59.672Z,14.44
2018-09-02T00:03:59.684Z,14.47
2018-09-02T00:04:59.662Z,14.51
2018-09-02T00:05:59.634Z,14.54
2018-09-02T00:06:59.628Z,14.50
2018-09-02T00:07:59.642Z,14.51
2018-09-02T00:08:59.635Z,14.48
2018-09-02T00:09:59.585Z,14.50
2018-09-02T00:10:59.616Z,14.55
2018-09-02T00:11:59.571Z,14.59
2018-09-02T00:12:59.560Z,14.60
2018-09-02T00:13:59.567Z,14.65
2018-09-02T00:14:59.536Z,14.62
2018-09-02T00:15:59.532Z,14.62
2018-09-02T00:16:59.511Z,14.60
2018-09-02T00:17:59.501Z,14.69
2018-09-02T00:18:59.527Z,14.63
2018-09-02T00:19:59.476Z,14.68
2018-09-02T00:20:59.476Z,14.63
2018-09-02T00:21:59.460Z,14.69
2018-09-02T00:22:59.454Z,14.60
2018-09-02T00:23:59.512Z,14.63
2018-09-02T00:24:59.480Z,14.72
2018-09-02T00:25:59.450Z,14.63
2018-09-02T00:26:59.401Z,14.85
2018-09-02T00:27:59.432Z,14.77
2018-09-02T00:28:59.410Z,14.84
2018-09-02T00:29:59.368Z,14.73
2018-09-02T00:30:59.422Z,14.85
2018-09-02T00:31:59.351Z,14.85
2018-09-02T00:32:59.398Z,14.86
2018-09-02T00:33:59.423Z,14.85
2018-09-02T00:34:59.348Z,14.78
2018-09-02T00:35:59.349Z,14.84
2018-09-02T00:36:59.293Z,14.85
2018-09-02T00:37:59.288Z,14.84
2018-09-02T00:38:59.274Z,14.81
2018-09-02T00:39:59.266Z,14.82
2018-09-02T00:40:59.282Z,14.82
2018-09-02T00:41:59.235Z,14.81
2018-09-02T00:42:59.289Z,14.77
2018-09-02T00:43:59.214Z,14.78
2018-09-02T00:44:59.206Z,14.79
2018-09-02T00:45:59.233Z,14.78
2018-09-02T00:46:59.182Z,14.70
2018-09-02T00:47:59.200Z,14.72
2018-09-02T00:48:59.202Z,14.72
2018-09-02T00:49:59.152Z,14.73
2018-09-02T00:50:59.168Z,14.81
2018-09-02T00:51:59.126Z,14.84
2018-09-02T00:52:59.114Z,14.77
2018-09-02T00:53:59.115Z,14.78
2018-09-02T00:54:59.117Z,14.81
2018-09-02T00:55:59.100Z,14.77
2018-09-02T00:56:59.071Z,14.78
2018-09-02T00:57:59.090Z,14.73
2018-09-02T00:58:59.053Z,14.73
2018-09-02T00:59:59.045Z,14.77
2018-09-02T01:00:59.035Z,14.81
2018-09-02T01:01:59.019Z,14.78
2018-09-02T01:02:59.053Z,14.78
2018-09-02T01:03:59.011Z,14.78
2018-09-02T01:04:58.985Z,14.77
2018-09-02T01:05:58.974Z,14.72
2018-09-02T01:06:58.972Z,14.72
2018-09-02T01:07:59.012Z,14.72
2018-09-02T01:08:58.948Z,14.70
2018-09-02T01:09:58.932Z,14.66
2018-09-02T01:10:58.920Z,14.68
2018-09-02T01:11:58.929Z,14.69
2018-09-02T01:12:58.939Z,14.66
2018-09-02T01:13:58.929Z,14.65
2018-09-02T01:14:58.875Z,14.65
2018-09-02T01:15:58.867Z,14.55
2018-09-02T01:16:58.859Z,14.60
2018-09-02T01:17:58.844Z,14.65
2018-09-02T01:18:58.865Z,14.59
2018-09-02T01:19:58.895Z,14.62
2018-09-02T01:20:58.812Z,14.66
2018-09-02T01:21:58.800Z,14.68
2018-09-02T01:22:58.813Z,14.65
2018-09-02T01:23:58.809Z,14.62
2018-09-02T01:24:58.767Z,14.62
2018-09-02T01:25:58.763Z,14.62
2018-09-02T01:26:58.747Z,14.59
2018-09-02T01:27:58.736Z,14.48
2018-09-02T01:28:58.752Z,14.53
2018-09-02T01:29:58.710Z,14.50
2018-09-02T01:30:58.728Z,14.58
2018-09-02T01:31:58.749Z,14.47
2018-09-02T01:32:58.681Z,14.50
2018-09-02T01:33:58.668Z,14.53
2018-09-02T01:34:58.662Z,14.41
2018-09-02T01:35:58.656Z,14.44
2018-09-02T01:36:58.687Z,14.41
2018-09-02T01:37:58.647Z,14.47
2018-09-02T01:38:58.612Z,14.48
2018-09-02T01:39:58.608Z,14.43
2018-09-02T01:40:58.592Z,14.44
2018-09-02T01:41:58.626Z,14.43
2018-09-02T01:42:58.571Z,14.41
2018-09-02T01:43:58.609Z,14.45
2018-09-02T01:44:58.552Z,14.33
2018-09-02T01:45:58.540Z,14.36
2018-09-02T01:46:58.561Z,14.36
2018-09-02T01:47:58.523Z,14.33
2018-09-02T01:48:58.507Z,14.43
2018-09-02T01:49:58.503Z,14.30
2018-09-02T01:50:58.530Z,14.33
2018-09-02T01:51:58.473Z,14.33
2018-09-02T01:52:58.498Z,14.33
2018-09-02T01:53:58.481Z,14.35
2018-09-02T01:54:58.440Z,14.43
2018-09-02T01:55:58.430Z,14.37
2018-09-02T01:56:58.457Z,14.35
2018-09-02T01:57:58.411Z,14.43
2018-09-02T01:58:58.399Z,14.40
2018-09-02T01:59:58.438Z,14.35
2018-09-02T02:00:58.375Z,14.41
2018-09-02T02:01:58.375Z,14.36
2018-09-02T02:02:58.388Z,14.37
2018-09-02T02:03:58.350Z,14.36
2018-09-02T02:04:58.339Z,14.35
2018-09-02T02:05:58.323Z,14.32
2018-09-02T02:06:58.311Z,14.36
2018-09-02T02:07:58.335Z,14.35
2018-09-02T02:08:58.298Z,14.29
2018-09-02T02:09:58.283Z,14.37
2018-09-02T02:10:58.280Z,14.33
2018-09-02T02:11:58.262Z,14.36
2018-09-02T02:12:58.275Z,14.32
2018-09-02T02:13:58.239Z,14.33
2018-09-02T02:14:58.249Z,14.30
2018-09-02T02:15:58.213Z,14.37
2018-09-02T02:16:58.206Z,14.37
2018-09-02T02:17:58.200Z,14.29
2018-09-02T02:18:58.212Z,14.28
2018-09-02T02:19:58.168Z,14.35
2018-09-02T02:20:58.160Z,14.22
2018-09-02T02:21:58.150Z,14.26
2018-09-02T02:22:58.157Z,14.30
2018-09-02T02:23:58.212Z,14.20
2018-09-02T02:24:58.116Z,14.26
2018-09-02T02:25:58.105Z,14.17
2018-09-02T02:26:58.094Z,14.22
2018-09-02T02:27:58.110Z,14.29
2018-09-02T02:28:58.100Z,14.26
2018-09-02T02:29:58.061Z,14.29
2018-09-02T02:30:58.048Z,14.29
2018-09-02T02:31:58.036Z,14.30
2018-09-02T02:32:58.063Z,14.33
2018-09-02T02:33:58.019Z,14.29
2018-09-02T02:34:58.008Z,14.22
2018-09-02T02:35:57.994Z,14.32
2018-09-02T02:36:58.014Z,14.25
2018-09-02T02:37:57.974Z,14.17
2018-09-02T02:38:57.960Z,14.23
2018-09-02T02:39:58.047Z,14.17
2018-09-02T02:40:57.937Z,14.20
2018-09-02T02:41:57.956Z,14.18
2018-09-02T02:42:57.915Z,14.20
2018-09-02T02:43:57.905Z,14.14
2018-09-02T02:44:57.932Z,14.26
2018-09-02T02:45:57.895Z,14.25
2018-09-02T02:46:57.869Z,14.14
2018-09-02T02:47:57.872Z,14.22
2018-09-02T02:48:57.860Z,14.12
2018-09-02T02:49:57.872Z,14.12
2018-09-02T02:50:57.833Z,14.18
2018-09-02T02:51:57.822Z,14.10
2018-09-02T02:52:57.849Z,14.12
2018-09-02T02:53:57.805Z,14.12
2018-09-02T02:54:57.782Z,14.07
2018-09-02T02:55:57.773Z,14.17
2018-09-02T02:56:57.771Z,14.12
2018-09-02T02:57:57.778Z,14.18
2018-09-02T02:58:57.741Z,14.18
2018-09-02T02:59:57.734Z,14.11
2018-09-02T03:00:57.755Z,14.08
2018-09-02T03:01:57.706Z,14.11
2018-09-02T03:02:57.692Z,14.05
2018-09-02T03:03:57.719Z,14.10
2018-09-02T03:04:57.675Z,14.07
2018-09-02T03:05:57.666Z,14.07
2018-09-02T03:06:57.651Z,14.10
2018-09-02T03:07:57.643Z,13.99
2018-09-02T03:08:57.659Z,13.99
2018-09-02T03:09:57.621Z,13.92
2018-09-02T03:10:57.609Z,13.95
2018-09-02T03:11:57.596Z,13.87
2018-09-02T03:12:57.615Z,13.90
2018-09-02T03:13:57.596Z,13.89
2018-09-02T03:14:57.587Z,13.95
2018-09-02T03:15:57.557Z,13.89
2018-09-02T03:16:57.570Z,13.95
2018-09-02T03:17:57.526Z,13.85
2018-09-02T03:18:57.521Z,13.90
2018-09-02T03:19:57.585Z,13.86
2018-09-02T03:20:57.506Z,13.93
2018-09-02T03:21:57.519Z,13.78
2018-09-02T03:22:57.478Z,13.89
2018-09-02T03:23:57.495Z,13.81
2018-09-02T03:24:57.451Z,13.83
2018-09-02T03:25:57.442Z,13.81
2018-09-02T03:26:57.436Z,13.78
2018-09-02T03:27:57.448Z,13.83
2018-09-02T03:28:57.411Z,13.85
2018-09-02T03:29:57.402Z,13.78
2018-09-02T03:30:57.389Z,13.81
2018-09-02T03:31:57.377Z,13.79
2018-09-02T03:32:57.407Z,13.79
2018-09-02T03:33:57.351Z,13.89
2018-09-02T03:34:57.339Z,13.89
2018-09-02T03:35:57.331Z,13.89
2018-09-02T03:36:57.325Z,13.83
2018-09-02T03:37:57.348Z,13.83
2018-09-02T03:38:57.370Z,13.90
2018-09-02T03:39:57.286Z,13.81
2018-09-02T03:40:57.276Z,13.72
2018-09-02T03:41:57.267Z,13.78
2018-09-02T03:42:57.290Z,13.77
2018-09-02T03:43:57.241Z,13.74
2018-09-02T03:44:57.244Z,13.74
2018-09-02T03:45:57.222Z,13.78
2018-09-02T03:46:57.208Z,13.70
2018-09-02T03:47:57.235Z,13.83
2018-09-02T03:48:57.223Z,13.74
2018-09-02T03:49:57.173Z,13.77
2018-09-02T03:50:57.160Z,13.77
2018-09-02T03:51:57.154Z,13.68
2018-09-02T03:52:57.142Z,13.74
2018-09-02T03:53:57.155Z,13.70
2018-09-02T03:54:57.157Z,13.70
2018-09-02T03:55:57.108Z,13.71
2018-09-02T03:56:57.098Z,13.72
2018-09-02T03:57:57.082Z,13.72
2018-09-02T03:58:57.109Z,13.81
2018-09-02T03:59:57.118Z,13.70
2018-09-02T04:00:57.050Z,13.75
2018-09-02T04:01:57.091Z,13.67
2018-09-02T04:02:57.052Z,13.74
2018-09-02T04:03:57.024Z,13.71
2018-09-02T04:04:57.011Z,13.75
2018-09-02T04:05:56.994Z,13.77
2018-09-02T04:06:57.025Z,13.71
2018-09-02T04:07:56.976Z,13.71
2018-09-02T04:08:56.966Z,13.63
2018-09-02T04:09:56.953Z,13.60
2018-09-02T04:10:56.942Z,13.67
2018-09-02T04:11:56.957Z,13.70
2018-09-02T04:12:56.928Z,13.74
2018-09-02T04:13:56.935Z,13.68
2018-09-02T04:14:56.901Z,13.65
2018-09-02T04:15:56.925Z,13.60
2018-09-02T04:16:56.887Z,13.63
2018-09-02T04:17:56.864Z,13.67
2018-09-02T04:18:56.930Z,13.68
2018-09-02T04:19:56.868Z,13.56
2018-09-02T04:20:56.834Z,13.67
2018-09-02T04:21:56.844Z,13.60
2018-09-02T04:22:56.808Z,13.63
2018-09-02T04:23:56.795Z,13.50
2018-09-02T04:24:56.797Z,13.62
2018-09-02T04:25:56.821Z,13.53
2018-09-02T04:26:56.761Z,13.60
2018-09-02T04:27:56.750Z,13.57
2018-09-02T04:28:56.743Z,13.47
2018-09-02T04:29:56.725Z,13.53
2018-09-02T04:30:56.744Z,13.47
2018-09-02T04:31:56.706Z,13.50
2018-09-02T04:32:56.698Z,13.52
2018-09-02T04:33:56.683Z,13.50
2018-09-02T04:34:56.722Z,13.47
2018-09-02T04:35:56.694Z,13.39
2018-09-02T04:36:56.712Z,13.46
2018-09-02T04:37:56.641Z,13.42
2018-09-02T04:38:56.626Z,13.44
2018-09-02T04:39:56.619Z,13.44
2018-09-02T04:40:56.639Z,13.44
2018-09-02T04:41:56.624Z,13.47
2018-09-02T04:42:56.633Z,13.42
2018-09-02T04:43:56.572Z,13.31
2018-09-02T04:44:57.574Z,13.39
2018-09-02T04:45:56.552Z,13.42
2018-09-02T04:46:56.541Z,13.46
2018-09-02T04:47:56.530Z,13.39
2018-09-02T04:48:56.553Z,13.31
2018-09-02T04:49:56.509Z,13.31
2018-09-02T04:50:56.497Z,13.39
2018-09-02T04:51:56.486Z,13.35
2018-09-02T04:52:56.525Z,13.35
2018-09-02T04:53:56.463Z,13.31
2018-09-02T04:54:56.451Z,13.30
2018-09-02T04:55:56.440Z,13.28
2018-09-02T04:56:56.432Z,13.33
2018-09-02T04:57:56.449Z,13.31
2018-09-02T04:58:56.461Z,13.35
2018-09-02T04:59:56.395Z,13.31
2018-09-02T05:00:56.388Z,13.31
2018-09-02T05:01:56.374Z,13.31
2018-09-02T05:02:56.397Z,13.28
2018-09-02T05:03:56.363Z,13.33
2018-09-02T05:04:56.339Z,13.28
2018-09-02T05:05:56.330Z,13.30
2018-09-02T05:06:56.351Z,13.31
2018-09-02T05:07:56.307Z,13.30
2018-09-02T05:08:56.290Z,13.35
2018-09-02T05:09:56.282Z,13.27
2018-09-02T05:10:56.284Z,13.27
2018-09-02T05:11:56.293Z,13.31
2018-09-02T05:12:56.251Z,13.38
2018-09-02T05:13:56.271Z,13.28
2018-09-02T05:14:56.240Z,13.33
2018-09-02T05:15:56.216Z,13.33
2018-09-02T05:16:56.248Z,13.31
2018-09-02T05:17:56.196Z,13.31
2018-09-02T05:18:56.185Z,13.31
2018-09-02T05:19:56.175Z,13.41
2018-09-02T05:20:56.161Z,13.49
2018-09-02T05:21:56.173Z,13.42
2018-09-02T05:22:56.184Z,13.46
2018-09-02T05:23:56.130Z,13.44
2018-09-02T05:24:56.117Z,13.46
2018-09-02T05:25:56.102Z,13.47
2018-09-02T05:26:56.095Z,13.47
2018-09-02T05:27:56.114Z,13.44
2018-09-02T05:28:56.077Z,13.46
2018-09-02T05:29:56.102Z,13.54
2018-09-02T05:30:56.074Z,13.50
2018-09-02T05:31:56.040Z,13.52
2018-09-02T05:32:56.069Z,13.60
2018-09-02T05:33:56.022Z,13.50
2018-09-02T05:34:56.006Z,13.53
2018-09-02T05:35:55.993Z,13.54
2018-09-02T05:36:56.052Z,13.54
2018-09-02T05:37:56.006Z,13.59
2018-09-02T05:38:56.005Z,13.60
2018-09-02T05:39:55.954Z,13.60
2018-09-02T05:40:55.936Z,13.62
2018-09-02T05:41:55.958Z,13.71
2018-09-02T05:42:55.943Z,13.68
2018-09-02T05:43:55.975Z,13.71
2018-09-02T05:44:55.895Z,13.74
2018-09-02T05:45:55.884Z,13.77
2018-09-02T05:46:55.891Z,13.65
2018-09-02T05:47:55.908Z,13.70
2018-09-02T05:48:55.855Z,13.87
2018-09-02T05:49:55.850Z,13.83
2018-09-02T05:50:55.872Z,13.87
2018-09-02T05:51:55.818Z,13.79
2018-09-02T05:52:55.856Z,13.90
2018-09-02T05:53:55.854Z,13.87
2018-09-02T05:54:55.936Z,13.93
2018-09-02T05:55:55.774Z,13.89
2018-09-02T05:56:55.764Z,14.00
2018-09-02T05:57:55.791Z,13.92
2018-09-02T05:58:55.741Z,13.89
2018-09-02T05:59:55.734Z,14.00
2018-09-02T06:00:55.754Z,14.07
2018-09-02T06:01:55.733Z,14.08
2018-09-02T06:02:55.749Z,14.07
2018-09-02T06:03:55.679Z,14.11
2018-09-02T06:04:55.674Z,14.20
2018-09-02T06:05:55.660Z,14.25
2018-09-02T06:06:55.702Z,14.22
2018-09-02T06:07:55.641Z,14.18
2018-09-02T06:08:55.632Z,14.15
2018-09-02T06:09:55.675Z,14.20
2018-09-02T06:10:55.692Z,14.15
2018-09-02T06:11:55.592Z,14.22
2018-09-02T06:12:55.591Z,14.23
2018-09-02T06:13:55.617Z,14.33
2018-09-02T06:14:55.566Z,14.29
2018-09-02T06:15:55.645Z,14.36
2018-09-02T06:16:55.540Z,14.35
2018-09-02T06:17:55.578Z,14.35
2018-09-02T06:18:55.523Z,14.30
2018-09-02T06:19:55.518Z,14.40
2018-09-02T06:20:55.496Z,14.41
2018-09-02T06:21:55.487Z,14.35
2018-09-02T06:22:55.507Z,14.45
2018-09-02T06:23:55.466Z,14.48
2018-09-02T06:24:55.456Z,14.51
2018-09-02T06:25:55.445Z,14.45
2018-09-02T06:26:55.465Z,14.45
2018-09-02T06:27:55.419Z,14.53
2018-09-02T06:28:55.413Z,14.55
2018-09-02T06:29:55.424Z,14.65
2018-09-02T06:30:55.387Z,14.62
2018-09-02T06:31:55.427Z,14.66
2018-09-02T06:32:55.407Z,14.65
2018-09-02T06:33:55.355Z,14.73
2018-09-02T06:34:55.392Z,14.72
2018-09-02T06:35:55.334Z,14.79
2018-09-02T06:36:55.377Z,14.84
2018-09-02T06:37:55.313Z,14.85
2018-09-02T06:38:55.309Z,14.86
2018-09-02T06:39:55.296Z,14.91
2018-09-02T06:40:55.283Z,14.91
2018-09-02T06:41:55.296Z,14.92
2018-09-02T06:42:55.264Z,14.88
2018-09-02T06:43:55.248Z,14.99
2018-09-02T06:44:55.236Z,15.02
2018-09-02T06:45:55.224Z,15.07
2018-09-02T06:46:55.246Z,15.09
2018-09-02T06:47:55.208Z,15.06
2018-09-02T06:48:55.192Z,15.07
2018-09-02T06:49:55.193Z,15.17
2018-09-02T06:50:55.225Z,15.10
2018-09-02T06:51:55.193Z,15.11
2018-09-02T06:52:55.176Z,15.18
2018-09-02T06:53:55.173Z,15.19
2018-09-02T06:54:55.129Z,15.27
2018-09-02T06:55:55.116Z,15.27
2018-09-02T06:56:55.100Z,15.19
2018-09-02T06:57:55.116Z,15.39
2018-09-02T06:58:55.081Z,15.31
2018-09-02T06:59:55.077Z,15.29
2018-09-02T07:00:55.090Z,15.37
2018-09-02T07:01:55.050Z,15.37
2018-09-02T07:02:55.036Z,15.42
2018-09-02T07:03:55.027Z,15.44
2018-09-02T07:04:55.016Z,15.54
2018-09-02T07:05:55.037Z,15.47
2018-09-02T07:06:55.057Z,15.59
2018-09-02T07:07:54.978Z,15.54
2018-09-02T07:08:54.975Z,15.59
2018-09-02T07:09:54.955Z,15.65
2018-09-02T07:10:54.988Z,15.68
2018-09-02T07:11:54.975Z,15.72
2018-09-02T07:12:54.918Z,15.80
2018-09-02T07:13:54.918Z,15.72
2018-09-02T07:14:54.905Z,15.82
2018-09-02T07:15:54.887Z,15.83
2018-09-02T07:16:54.912Z,15.83
2018-09-02T07:17:54.866Z,15.97
2018-09-02T07:18:54.860Z,15.97
2018-09-02T07:19:54.914Z,16.02
2018-09-02T07:20:54.844Z,16.05
2018-09-02T07:21:54.822Z,16.04
2018-09-02T07:22:54.810Z,16.09
2018-09-02T07:23:54.794Z,16.15
2018-09-02T07:24:54.845Z,16.17
2018-09-02T07:25:54.779Z,16.24
2018-09-02T07:26:54.775Z,16.32
2018-09-02T07:27:54.782Z,16.35
2018-09-02T07:28:54.755Z,16.41
2018-09-02T07:29:54.732Z,16.39
2018-09-02T07:30:54.766Z,16.42
2018-09-02T07:31:54.718Z,16.43
2018-09-02T07:32:54.701Z,16.47
2018-09-02T07:33:54.727Z,16.47
2018-09-02T07:34:54.683Z,16.43
2018-09-02T07:35:54.716Z,16.56
2018-09-02T07:36:54.665Z,16.47
2018-09-02T07:37:54.651Z,16.54
2018-09-02T07:38:54.640Z,16.64
2018-09-02T07:39:54.632Z,16.53
2018-09-02T07:40:54.650Z,16.60
2018-09-02T07:41:54.602Z,16.61
2018-09-02T07:42:54.590Z,16.65
2018-09-02T07:43:54.639Z,16.69
2018-09-02T07:44:54.589Z,16.69
2018-09-02T07:45:54.590Z,16.71
2018-09-02T07:46:54.547Z,16.72
2018-09-02T07:47:54.533Z,16.69
2018-09-02T07:48:54.565Z,16.75
2018-09-02T07:49:54.529Z,16.78
2018-09-02T07:50:54.503Z,16.76
2018-09-02T07:51:54.524Z,16.81
2018-09-02T07:52:54.482Z,16.87
2018-09-02T07:53:54.472Z,16.90
2018-09-02T07:54:54.457Z,16.87
2018-09-02T07:55:54.490Z,17.02
2018-09-02T07:56:54.434Z,17.02
2018-09-02T07:57:54.421Z,17.04
2018-09-02T07:58:54.424Z,17.11
2018-09-02T07:59:54.406Z,17.09
2018-09-02T08:00:54.422Z,17.08
2018-09-02T08:01:54.488Z,17.23
2018-09-02T08:02:54.369Z,17.24
2018-09-02T08:03:54.366Z,17.26
2018-09-02T08:04:54.349Z,17.27
2018-09-02T08:05:54.385Z,17.29
2018-09-02T08:06:54.325Z,17.39
2018-09-02T08:07:54.318Z,17.38
2018-09-02T08:08:54.308Z,17.41
2018-09-02T08:09:54.324Z,17.49
2018-09-02T08:10:54.336Z,17.51
2018-09-02T08:11:54.278Z,17.60
2018-09-02T08:12:54.514Z,17.57
2018-09-02T08:13:54.275Z,17.65
2018-09-02T08:14:54.247Z,17.68
2018-09-02T08:15:54.244Z,17.67
2018-09-02T08:16:54.227Z,17.71
2018-09-02T08:17:54.202Z,17.82
2018-09-02T08:18:54.226Z,17.78
2018-09-02T08:19:54.278Z,17.80
2018-09-02T08:20:54.169Z,17.80
2018-09-02T08:21:54.158Z,17.92
2018-09-02T08:22:54.190Z,17.86
2018-09-02T08:23:54.149Z,17.90
2018-09-02T08:24:54.134Z,18.04
2018-09-02T08:25:54.129Z,18.08
2018-09-02T08:26:54.179Z,18.05
2018-09-02T08:27:54.126Z,18.03
2018-09-02T08:28:54.114Z,18.07
2018-09-02T08:29:54.117Z,18.19
2018-09-02T08:30:54.061Z,18.18
2018-09-02T08:31:54.087Z,18.10
2018-09-02T08:32:54.085Z,18.22
2018-09-02T08:33:54.055Z,18.26
2018-09-02T08:34:54.026Z,18.28
2018-09-02T08:35:54.045Z,18.33
2018-09-02T08:36:54.001Z,18.38
2018-09-02T08:37:53.994Z,18.40
2018-09-02T08:38:59.186Z,18.47
2018-09-02T08:39:53.968Z,18.52
2018-09-02T08:40:53.961Z,18.59
2018-09-02T08:41:53.949Z,18.59
2018-09-02T08:42:54.606Z,18.65
2018-09-02T08:43:53.940Z,18.59
2018-09-02T08:44:53.906Z,18.66
2018-09-02T08:45:53.896Z,18.65
2018-09-02T08:46:53.892Z,18.70
2018-09-02T08:47:53.901Z,18.65
2018-09-02T08:48:53.863Z,18.62
2018-09-02T08:49:53.871Z,18.73
2018-09-02T08:50:53.882Z,18.84
2018-09-02T08:51:53.838Z,18.90
2018-09-02T08:52:53.830Z,18.95
2018-09-02T08:53:53.808Z,19.02
2018-09-02T08:54:53.825Z,19.16
2018-09-02T08:55:53.839Z,19.19
2018-09-02T08:56:53.773Z,19.18
2018-09-02T08:57:53.763Z,19.31
2018-09-02T08:58:53.801Z,19.36
2018-09-02T08:59:53.761Z,19.44
2018-09-02T09:00:53.749Z,19.45
2018-09-02T09:01:53.734Z,19.52
2018-09-02T09:02:53.708Z,19.51
2018-09-02T09:03:53.707Z,19.67
2018-09-02T09:04:53.693Z,19.63
2018-09-02T09:05:53.699Z,19.77
2018-09-02T09:06:53.773Z,19.79
2018-09-02T09:07:53.851Z,19.84
2018-09-02T09:08:53.778Z,19.82
2018-09-02T09:09:53.632Z,19.85
2018-09-02T09:10:53.617Z,19.91
2018-09-02T09:11:53.654Z,19.86
2018-09-02T09:12:53.599Z,19.92
2018-09-02T09:13:53.591Z,19.91
2018-09-02T09:14:53.575Z,19.96
2018-09-02T09:15:53.560Z,19.99
2018-09-02T09:16:53.640Z,20.04
2018-09-02T09:17:53.568Z,20.02
2018-09-02T09:18:53.532Z,20.04
2018-09-02T09:19:53.520Z,20.10
2018-09-02T09:20:53.503Z,20.06
2018-09-02T09:21:53.506Z,20.22
2018-09-02T09:22:53.612Z,20.16
2018-09-02T09:23:53.500Z,20.13
2018-09-02T09:24:53.479Z,20.28
2018-09-02T09:25:53.454Z,20.28
2018-09-02T09:26:53.439Z,20.29
2018-09-02T09:27:53.456Z,20.47
2018-09-02T09:28:53.421Z,20.48
2018-09-02T09:29:53.411Z,20.44
2018-09-02T09:30:53.397Z,20.58
2018-09-02T09:31:53.385Z,20.52
2018-09-02T09:32:53.373Z,20.59
2018-09-02T09:33:53.400Z,20.66
2018-09-02T09:34:53.358Z,20.74
2018-09-02T09:35:53.347Z,20.69
2018-09-02T09:36:53.332Z,20.75
2018-09-02T09:37:53.325Z,20.80
2018-09-02T09:38:53.334Z,20.82
2018-09-02T09:39:53.300Z,20.80
2018-09-02T09:40:53.304Z,20.81
2018-09-02T09:41:53.280Z,20.82
2018-09-02T09:42:53.271Z,20.82
2018-09-02T09:43:53.279Z,20.90
2018-09-02T09:44:53.240Z,20.97
2018-09-02T09:45:53.305Z,20.92
2018-09-02T09:46:53.233Z,20.93
2018-09-02T09:47:53.208Z,20.92
2018-09-02T09:48:53.205Z,20.87
2018-09-02T09:49:53.220Z,20.88
2018-09-02T09:50:53.174Z,20.80
2018-09-02T09:51:53.170Z,20.78
2018-09-02T09:52:53.159Z,20.84
2018-09-02T09:53:53.178Z,20.75
2018-09-02T09:54:53.159Z,20.80
2018-09-02T09:55:53.132Z,20.74
2018-09-02T09:56:53.129Z,20.77
2018-09-02T09:57:53.112Z,20.82
2018-09-02T09:58:53.132Z,20.80
2018-09-02T09:59:53.102Z,20.90
2018-09-02T10:00:53.068Z,20.93
2018-09-02T10:01:53.082Z,20.88
2018-09-02T10:02:53.113Z,20.95
2018-09-02T10:03:53.034Z,20.90
2018-09-02T10:04:53.049Z,20.95
2018-09-02T10:05:53.012Z,21.03
2018-09-02T10:06:53.022Z,21.00
2018-09-02T10:07:53.003Z,20.93
2018-09-02T10:08:52.981Z,21.03
2018-09-02T10:09:52.969Z,21.00
2018-09-02T10:10:52.988Z,21.02
2018-09-02T10:11:53.044Z,21.06
2018-09-02T10:12:52.950Z,21.02
2018-09-02T10:13:52.927Z,21.09
2018-09-02T10:14:52.945Z,21.18
2018-09-02T10:15:52.923Z,21.24
2018-09-02T10:16:52.887Z,21.22
2018-09-02T10:17:52.878Z,21.27
2018-09-02T10:18:52.925Z,21.36
2018-09-02T10:19:52.865Z,21.37
2018-09-02T10:20:52.872Z,21.32
2018-09-02T10:21:52.836Z,21.48
2018-09-02T10:22:52.854Z,21.54
2018-09-02T10:23:52.822Z,21.52
2018-09-02T10:24:59.898Z,21.52
2018-09-02T10:25:52.797Z,21.54
2018-09-02T10:26:52.788Z,21.50
2018-09-02T10:27:52.786Z,21.58
2018-09-02T10:28:52.798Z,21.67
2018-09-02T10:29:52.750Z,21.64
2018-09-02T10:30:52.776Z,21.76
2018-09-02T10:31:52.729Z,21.67
2018-09-02T10:32:52.722Z,21.70
2018-09-02T10:33:52.713Z,21.73
2018-09-02T10:34:52.729Z,21.72
2018-09-02T10:35:52.693Z,21.72
2018-09-02T10:36:52.679Z,21.60
2018-09-02T10:37:52.673Z,21.73
2018-09-02T10:38:52.679Z,21.73
2018-09-02T10:39:52.654Z,21.66
2018-09-02T10:40:52.681Z,21.77
2018-09-02T10:41:52.654Z,21.75
2018-09-02T10:42:52.619Z,21.76
2018-09-02T10:43:52.602Z,21.83
2018-09-02T10:44:52.584Z,21.91
2018-09-02T10:45:52.632Z,21.82
2018-09-02T10:46:52.566Z,21.91
2018-09-02T10:47:52.559Z,21.88
2018-09-02T10:48:52.581Z,21.85
2018-09-02T10:49:52.584Z,21.75
2018-09-02T10:50:52.522Z,21.76
2018-09-02T10:51:52.510Z,21.82
2018-09-02T10:52:52.499Z,21.80
2018-09-02T10:53:52.503Z,21.91
2018-09-02T10:54:52.525Z,21.93
2018-09-02T10:55:52.503Z,21.91
2018-09-02T10:56:52.458Z,21.91
2018-09-02T10:57:52.442Z,21.99
2018-09-02T10:58:52.504Z,21.95
2018-09-02T10:59:52.424Z,21.99
2018-09-02T11:00:52.454Z,22.00
2018-09-02T11:01:52.404Z,22.06
2018-09-02T11:02:52.402Z,22.00
2018-09-02T11:03:52.417Z,21.95
2018-09-02T11:04:52.376Z,21.99
2018-09-02T11:05:52.386Z,22.04
2018-09-02T11:06:52.364Z,22.04
2018-09-02T11:07:52.344Z,22.02
2018-09-02T11:08:52.331Z,22.02
2018-09-02T11:09:52.312Z,21.99
2018-09-02T11:10:52.339Z,22.02
2018-09-02T11:11:52.297Z,22.06
2018-09-02T11:12:52.383Z,22.13
2018-09-02T11:13:52.399Z,22.17
2018-09-02T11:14:52.356Z,22.23
2018-09-02T11:15:52.247Z,22.22
2018-09-02T11:16:52.284Z,22.22
2018-09-02T11:17:52.280Z,22.28
2018-09-02T11:18:52.219Z,22.33
2018-09-02T11:19:52.199Z,22.41
2018-09-02T11:20:52.190Z,22.38
2018-09-02T11:21:52.180Z,22.41
2018-09-02T11:22:52.270Z,22.44
2018-09-02T11:23:52.186Z,22.32
2018-09-02T11:24:52.150Z,22.39
2018-09-02T11:25:52.143Z,22.39
2018-09-02T11:26:52.156Z,22.39
2018-09-02T11:27:52.116Z,22.38
2018-09-02T11:28:52.103Z,22.39
2018-09-02T11:29:52.097Z,22.41
2018-09-02T11:30:52.092Z,22.44
2018-09-02T11:31:52.105Z,22.41
2018-09-02T11:32:52.062Z,22.51
2018-09-02T11:33:52.116Z,22.55
2018-09-02T11:34:52.040Z,22.55
2018-09-02T11:35:52.056Z,22.60
2018-09-02T11:36:52.014Z,22.57
2018-09-02T11:37:52.051Z,22.66
2018-09-02T11:38:52.673Z,22.62
2018-09-02T11:39:51.986Z,22.60
2018-09-02T11:40:51.979Z,22.60
2018-09-02T11:41:51.959Z,22.69
2018-09-02T11:42:51.988Z,22.62
2018-09-02T11:43:51.944Z,22.66
2018-09-02T11:44:51.927Z,22.63
2018-09-02T11:45:51.915Z,22.65
2018-09-02T11:46:51.963Z,22.73
2018-09-02T11:47:51.930Z,22.75
2018-09-02T11:48:51.895Z,22.83
2018-09-02T11:49:51.867Z,22.87
2018-09-02T11:50:51.861Z,22.83
2018-09-02T11:51:51.848Z,22.81
2018-09-02T11:52:51.868Z,22.80
2018-09-02T11:53:51.856Z,22.80
2018-09-02T11:54:51.886Z,22.80
2018-09-02T11:55:51.813Z,22.81
2018-09-02T11:56:51.841Z,22.70
2018-09-02T11:57:51.835Z,22.83
2018-09-02T11:58:51.902Z,22.80
2018-09-02T11:59:51.767Z,22.83
2018-09-02T12:00:51.755Z,22.81
2018-09-02T12:01:51.737Z,22.83
2018-09-02T12:02:51.728Z,22.80
2018-09-02T12:03:51.763Z,22.85
2018-09-02T12:04:51.788Z,22.83
2018-09-02T12:05:51.699Z,22.87
2018-09-02T12:06:51.748Z,22.87
2018-09-02T12:07:51.670Z,22.93
2018-09-02T12:08:51.659Z,22.93
2018-09-02T12:09:51.651Z,23.00
2018-09-02T12:10:51.642Z,22.96
2018-09-02T12:11:51.762Z,23.02
2018-09-02T12:12:51.627Z,23.03
2018-09-02T12:13:51.685Z,23.02
2018-09-02T12:14:52.148Z,23.05
2018-09-02T12:15:51.581Z,23.06
2018-09-02T12:16:51.600Z,23.17
2018-09-02T12:17:51.559Z,23.10
2018-09-02T12:18:51.563Z,23.12
2018-09-02T12:19:51.590Z,23.20
2018-09-02T12:20:51.531Z,23.23
2018-09-02T12:21:51.513Z,23.21
2018-09-02T12:22:51.553Z,23.20
2018-09-02T12:23:51.498Z,23.28
2018-09-02T12:24:51.491Z,23.28
2018-09-02T12:25:51.473Z,23.31
2018-09-02T12:26:51.464Z,23.28
2018-09-02T12:27:51.485Z,23.43
2018-09-02T12:28:51.436Z,23.55
2018-09-02T12:29:51.437Z,23.76
2018-09-02T12:30:51.471Z,23.91
2018-09-02T12:31:51.400Z,24.06
2018-09-02T12:32:51.399Z,24.21
2018-09-02T12:33:51.386Z,24.39
2018-09-02T12:34:51.414Z,24.60
2018-09-02T12:35:51.385Z,24.80
2018-09-02T12:36:51.366Z,25.04
2018-09-02T12:37:51.344Z,25.18
2018-09-02T12:38:51.379Z,25.33
2018-09-02T12:39:51.321Z,25.55
2018-09-02T12:40:51.313Z,25.66
2018-09-02T12:41:51.328Z,25.77
2018-09-02T12:42:51.290Z,25.91
2018-09-02T12:43:51.290Z,26.07
2018-09-02T12:44:51.285Z,26.26
2018-09-02T12:45:51.302Z,26.41
2018-09-02T12:46:51.256Z,26.52
2018-09-02T12:47:51.361Z,26.63
2018-09-02T12:48:51.228Z,26.66
2018-09-02T12:49:51.212Z,26.81
2018-09-02T12:50:51.237Z,26.88
2018-09-02T12:51:51.239Z,26.92
2018-09-02T12:52:51.178Z,27.02